createdAt,value
2023-04-30T00:00:23.174Z,10.2
2023-04-30T00:01:39.504Z,11.3
2023-04-30T00:02:55.775Z,10.5
2023-04-30T00:04:12.082Z,11.1
2023-04-30T00:05:28.390Z,13.6
2023-04-30T00:06:44.669Z,12.8
2023-04-30T00:08:00.934Z,10.2
2023-04-30T00:09:17.234Z,12.5
2023-04-30T00:10:33.526Z,13.6
2023-04-30T00:11:49.816Z,12.5
2023-04-30T00:13:06.146Z,12.3
2023-04-30T00:14:22.422Z,12.4
2023-04-30T00:15:38.709Z,12
2023-04-30T00:16:54.011Z,12
2023-04-30T00:18:10.316Z,13
2023-04-30T00:19:26.629Z,12.3
2023-04-30T00:20:42.901Z,11.4
2023-04-30T00:21:59.189Z,14.9
2023-04-30T00:23:15.492Z,12.8
2023-04-30T00:24:31.776Z,12.9
2023-04-30T00:25:48.073Z,13.5
2023-04-30T00:27:04.368Z,13.3
2023-04-30T00:28:20.662Z,13.4
2023-04-30T00:29:36.952Z,12.1
2023-04-30T00:30:53.246Z,13.1
2023-04-30T00:32:09.556Z,14.6
2023-04-30T00:33:24.868Z,10.6
2023-04-30T00:34:41.160Z,11.5
2023-04-30T00:35:57.479Z,13.6
2023-04-30T00:37:13.733Z,11.5
2023-04-30T00:38:30.029Z,10.9
2023-04-30T00:39:46.367Z,10.7
2023-04-30T00:41:02.636Z,10.5
2023-04-30T00:42:18.915Z,10.5
2023-04-30T00:43:35.238Z,9.4
2023-04-30T00:44:51.518Z,11.2
2023-04-30T00:46:07.823Z,12.1
2023-04-30T00:47:24.102Z,9.2
2023-04-30T00:48:40.383Z,10.8
2023-04-30T00:49:55.696Z,10.6
2023-04-30T00:51:11.999Z,8.5
2023-04-30T00:52:28.281Z,9.6
2023-04-30T00:53:44.583Z,8.6
2023-04-30T00:55:00.000Z,7.6
2023-04-30T00:56:17.170Z,8.5
2023-04-30T00:57:33.455Z,7.1
2023-04-30T00:58:49.781Z,7
2023-04-30T01:00:06.054Z,8.6
2023-04-30T01:01:22.344Z,7.1
2023-04-30T01:02:38.662Z,8
2023-04-30T01:03:54.925Z,7.4
2023-04-30T01:05:11.218Z,7.1
2023-04-30T01:06:26.560Z,9.3
2023-04-30T01:07:42.840Z,7
2023-04-30T01:08:59.149Z,7.8
2023-04-30T01:10:15.447Z,7.6
2023-04-30T01:11:31.705Z,7.2
2023-04-30T01:12:48.002Z,10.2
2023-04-30T01:14:04.295Z,8.1
2023-04-30T01:15:20.604Z,7.8
2023-04-30T01:16:36.900Z,9.6
2023-04-30T01:17:53.182Z,7.2
2023-04-30T01:19:09.472Z,8.5
2023-04-30T01:20:25.762Z,7.1
2023-04-30T01:21:42.094Z,10
2023-04-30T01:22:57.381Z,10
2023-04-30T01:24:13.692Z,7.6
2023-04-30T01:25:29.987Z,9.2
2023-04-30T01:26:46.250Z,8.6
2023-04-30T01:28:02.540Z,7.6
2023-04-30T01:29:18.869Z,7.2
2023-04-30T01:30:35.129Z,8.1
2023-04-30T01:31:51.424Z,6.5
2023-04-30T01:33:07.723Z,8.4
2023-04-30T01:34:24.015Z,6.8
2023-04-30T01:35:40.317Z,8.9
2023-04-30T01:36:56.630Z,7.9
2023-04-30T01:38:12.895Z,9.8
2023-04-30T01:39:28.201Z,9.3
2023-04-30T01:40:44.501Z,8.9
2023-04-30T01:42:00.834Z,9.8
2023-04-30T01:43:17.126Z,9.8
2023-04-30T01:44:33.389Z,9.8
2023-04-30T01:45:49.676Z,8.5
2023-04-30T01:47:06.001Z,9.6
2023-04-30T01:48:22.290Z,10.7
2023-04-30T01:49:38.552Z,7.5
2023-04-30T01:50:54.846Z,8.6
2023-04-30T01:52:11.150Z,8.5
2023-04-30T01:53:27.432Z,9.7
2023-04-30T01:54:43.726Z,10.1
2023-04-30T01:55:59.056Z,8.4
2023-04-30T01:57:15.343Z,12.7
2023-04-30T01:58:31.000Z,6.6
2023-04-30T01:59:47.928Z,8.9
2023-04-30T02:01:04.222Z,7.5
2023-04-30T02:02:20.509Z,8.8
2023-04-30T02:03:36.805Z,8.2
2023-04-30T02:04:53.107Z,9.9
2023-04-30T02:06:09.389Z,10.1
2023-04-30T02:07:25.722Z,8.8
2023-04-30T02:08:41.973Z,9.7
2023-04-30T02:09:58.000Z,9.9
2023-04-30T02:11:14.564Z,10.4
2023-04-30T02:12:29.882Z,7.6
2023-04-30T02:13:46.170Z,9.7
2023-04-30T02:15:02.467Z,10
2023-04-30T02:16:18.768Z,9.3
2023-04-30T02:17:35.063Z,8.9
2023-04-30T02:18:51.347Z,11.7
2023-04-30T02:20:07.639Z,7.9
2023-04-30T02:21:23.933Z,8.8
2023-04-30T02:22:40.226Z,10.3
2023-04-30T02:23:56.523Z,10.3
2023-04-30T02:25:12.812Z,10.6
2023-04-30T02:26:29.105Z,9.7
2023-04-30T02:27:45.401Z,11.2
2023-04-30T02:29:00.721Z,7.4
2023-04-30T02:30:17.014Z,12.2
2023-04-30T02:31:33.302Z,8.7
2023-04-30T02:32:49.595Z,10.5
2023-04-30T02:34:05.881Z,11.5
2023-04-30T02:35:22.181Z,9.4
2023-04-30T02:36:37.497Z,8.5
2023-04-30T02:37:53.788Z,10.3
2023-04-30T02:39:10.084Z,9
2023-04-30T02:40:26.378Z,13.4
2023-04-30T02:41:42.666Z,9.7
2023-04-30T02:42:58.961Z,12.5
2023-04-30T02:44:15.258Z,8.9
2023-04-30T02:45:31.556Z,10.7
2023-04-30T02:46:47.850Z,10.3
2023-04-30T02:48:04.132Z,12.2
2023-04-30T02:49:20.443Z,9
2023-04-30T02:50:36.739Z,8.5
2023-04-30T02:51:53.029Z,8.9
2023-04-30T02:53:08.326Z,8.7
2023-04-30T02:54:24.627Z,11.1
2023-04-30T02:55:40.914Z,11.8
2023-04-30T02:56:57.215Z,7.7
2023-04-30T02:58:13.509Z,10
2023-04-30T02:59:29.793Z,10.5
2023-04-30T03:00:46.102Z,11.9
2023-04-30T03:02:02.384Z,7.7
2023-04-30T03:03:18.678Z,13
2023-04-30T03:04:34.974Z,11
2023-04-30T03:05:51.260Z,8.1
2023-04-30T03:07:07.562Z,10.7
2023-04-30T03:08:23.853Z,10.8
2023-04-30T03:09:39.165Z,8.5
2023-04-30T03:10:55.458Z,12
2023-04-30T03:12:11.697Z,9.1
2023-04-30T03:13:28.000Z,8.9
2023-04-30T03:14:44.292Z,10.8
2023-04-30T03:16:00.543Z,7.9
2023-04-30T03:17:16.778Z,12.9
2023-04-30T03:18:33.073Z,9.9
2023-04-30T03:19:49.358Z,8.8
2023-04-30T03:21:05.665Z,9.5
2023-04-30T03:22:21.963Z,10.1
2023-04-30T03:23:38.257Z,7.7
2023-04-30T03:24:54.492Z,13.4
2023-04-30T03:26:09.762Z,9.6
2023-04-30T03:27:25.990Z,9.8
2023-04-30T03:28:42.224Z,8.9
2023-04-30T03:29:58.479Z,10.7
2023-04-30T03:31:14.707Z,12.1
2023-04-30T03:32:30.960Z,9.6
2023-04-30T03:33:47.184Z,13.4
2023-04-30T03:35:03.441Z,12.5
2023-04-30T03:36:19.663Z,9.2
2023-04-30T03:37:35.905Z,8.8
2023-04-30T03:38:52.162Z,9.3
2023-04-30T03:40:08.392Z,11.5
2023-04-30T03:41:24.634Z,10
2023-04-30T03:42:39.877Z,9.9
2023-04-30T03:43:56.124Z,11.7
2023-04-30T03:45:12.358Z,10.2
2023-04-30T03:46:28.614Z,7.4
2023-04-30T03:47:44.840Z,11.1
2023-04-30T03:49:01.098Z,10.1
2023-04-30T03:50:17.318Z,10.8
2023-04-30T03:51:33.564Z,12.6
2023-04-30T03:52:49.804Z,10.1
2023-04-30T03:54:06.039Z,8.2
2023-04-30T03:55:22.274Z,9
2023-04-30T03:56:38.521Z,8.2
2023-04-30T03:57:54.770Z,11.2
2023-04-30T03:59:10.011Z,8.9
2023-04-30T04:00:26.252Z,11.8
2023-04-30T04:01:42.503Z,9.4
2023-04-30T04:02:58.731Z,9.3
2023-04-30T04:04:14.978Z,13.3
2023-04-30T04:05:31.215Z,11.4
2023-04-30T04:06:47.454Z,11.3
2023-04-30T04:08:03.710Z,11.7
2023-04-30T04:09:19.929Z,12.4
2023-04-30T04:10:36.175Z,11
2023-04-30T04:11:52.411Z,11.4
2023-04-30T04:13:08.648Z,12.2
2023-04-30T04:14:24.899Z,12.4
2023-04-30T04:15:40.157Z,11.7
2023-04-30T04:16:56.391Z,13.7
2023-04-30T04:18:12.625Z,12.6
2023-04-30T04:19:28.870Z,12.9
2023-04-30T04:20:45.000Z,10.1
2023-04-30T04:22:01.342Z,13
2023-04-30T04:23:17.594Z,11.3
2023-04-30T04:24:33.820Z,12.8
2023-04-30T04:25:50.070Z,12.1
2023-04-30T04:27:06.303Z,12.3
2023-04-30T04:28:22.550Z,9.8
2023-04-30T04:29:38.787Z,8.5
2023-04-30T04:30:55.024Z,13.8
2023-04-30T04:32:10.274Z,13
2023-04-30T04:33:26.519Z,12.1
2023-04-30T04:34:42.760Z,10
2023-04-30T04:35:59.007Z,19.2
2023-04-30T04:37:15.233Z,14.8
2023-04-30T04:38:31.477Z,11.7
2023-04-30T04:39:47.718Z,12.7
2023-04-30T04:41:03.971Z,8.9
2023-04-30T04:42:20.206Z,10.8
2023-04-30T04:43:36.432Z,11.2
2023-04-30T04:44:52.678Z,12.4
2023-04-30T04:46:08.917Z,11.2
2023-04-30T04:47:25.153Z,13.7
2023-04-30T04:48:40.411Z,11.4
2023-04-30T04:49:56.657Z,15.9
2023-04-30T04:51:12.893Z,13.8
2023-04-30T04:52:29.129Z,13.3
2023-04-30T04:53:45.385Z,14.9
2023-04-30T04:55:01.615Z,13.3
2023-04-30T04:56:17.855Z,11.1
2023-04-30T04:57:34.092Z,13.4
2023-04-30T04:58:50.324Z,14
2023-04-30T05:00:06.565Z,11
2023-04-30T05:01:22.812Z,11.7
2023-04-30T05:02:39.061Z,12
2023-04-30T05:03:55.287Z,14.6
2023-04-30T05:05:10.547Z,12.6
2023-04-30T05:06:26.785Z,10.5
2023-04-30T05:07:43.022Z,14.5
2023-04-30T05:08:59.267Z,14.2
2023-04-30T05:10:15.501Z,13.9
2023-04-30T05:11:31.750Z,11.7
2023-04-30T05:12:47.984Z,13.1
2023-04-30T05:14:04.223Z,11.6
2023-04-30T05:15:20.477Z,10.3
2023-04-30T05:16:36.709Z,11.3
2023-04-30T05:17:52.943Z,14.6
2023-04-30T05:19:09.180Z,9.5
2023-04-30T05:20:25.416Z,10.5
2023-04-30T05:21:40.676Z,14.3
2023-04-30T05:22:56.912Z,10.8
2023-04-30T05:24:13.156Z,12.8
2023-04-30T05:25:29.391Z,14
2023-04-30T05:26:45.637Z,12.2
2023-04-30T05:28:01.877Z,12.8
2023-04-30T05:29:18.120Z,14.6
2023-04-30T05:30:34.365Z,14.1
2023-04-30T05:31:50.609Z,12.4
2023-04-30T05:33:06.832Z,14.3
2023-04-30T05:34:23.085Z,11
2023-04-30T05:35:39.316Z,12.2
2023-04-30T05:36:55.559Z,10.8
2023-04-30T05:38:10.813Z,13.7
2023-04-30T05:39:27.053Z,14.6
2023-04-30T05:40:43.298Z,15
2023-04-30T05:41:59.534Z,13.3
2023-04-30T05:43:15.000Z,14.1
2023-04-30T05:44:32.008Z,9.5
2023-04-30T05:45:48.251Z,15.2
2023-04-30T05:47:04.487Z,12.9
2023-04-30T05:48:20.726Z,12.5
2023-04-30T05:49:36.968Z,13.7
2023-04-30T05:50:53.202Z,12.6
2023-04-30T05:52:09.443Z,15.1
2023-04-30T05:53:25.682Z,11.8
2023-04-30T05:54:40.950Z,12.6
2023-04-30T05:55:57.180Z,14.9
2023-04-30T05:57:13.421Z,15.9
2023-04-30T05:58:29.660Z,15.2
2023-04-30T05:59:45.914Z,12.6
2023-04-30T06:01:02.151Z,14.8
2023-04-30T06:02:18.388Z,10.1
2023-04-30T06:03:34.625Z,14.7
2023-04-30T06:04:50.860Z,9.9
2023-04-30T06:06:07.095Z,9.8
2023-04-30T06:07:23.340Z,12.8
2023-04-30T06:08:39.583Z,14.9
2023-04-30T06:09:55.816Z,14.3
2023-04-30T06:11:11.089Z,12.1
2023-04-30T06:12:27.320Z,11.9
2023-04-30T06:13:43.565Z,11.2
2023-04-30T06:14:59.793Z,14.7
2023-04-30T06:16:16.046Z,10.6
2023-04-30T06:17:32.277Z,14.9
2023-04-30T06:18:48.513Z,11.6
2023-04-30T06:20:04.753Z,12.5
2023-04-30T06:21:20.993Z,11.7
2023-04-30T06:22:37.247Z,13.1
2023-04-30T06:23:53.469Z,12.3
2023-04-30T06:25:09.707Z,10.8
2023-04-30T06:26:25.950Z,12.8
2023-04-30T06:27:41.212Z,12.7
2023-04-30T06:28:57.449Z,12.4
2023-04-30T06:30:13.695Z,16.5
2023-04-30T06:31:29.930Z,12.2
2023-04-30T06:32:46.169Z,7.9
2023-04-30T06:34:02.419Z,12.6
2023-04-30T06:35:18.645Z,12.6
2023-04-30T06:36:34.891Z,9.4
2023-04-30T06:37:51.128Z,10.8
2023-04-30T06:39:07.363Z,13.7
2023-04-30T06:40:23.609Z,10.6
2023-04-30T06:41:39.844Z,11.5
2023-04-30T06:42:56.096Z,10.9
2023-04-30T06:44:11.338Z,12.7
2023-04-30T06:45:27.575Z,10.6
2023-04-30T06:46:43.828Z,9.2
2023-04-30T06:48:00.062Z,14
2023-04-30T06:49:16.300Z,11.3
2023-04-30T06:50:32.541Z,9.7
2023-04-30T06:51:47.815Z,14.7
2023-04-30T06:53:04.046Z,10.2
2023-04-30T06:54:20.283Z,12.8
2023-04-30T06:55:36.516Z,15.4
2023-04-30T06:56:52.755Z,13.5
2023-04-30T06:58:09.003Z,12.1
2023-04-30T06:59:25.240Z,14.3
2023-04-30T07:00:41.482Z,10.9
2023-04-30T07:01:57.729Z,13.8
2023-04-30T07:03:13.972Z,12.3
2023-04-30T07:04:30.192Z,13.8
2023-04-30T07:05:46.437Z,11
2023-04-30T07:07:02.689Z,13.9
2023-04-30T07:08:17.947Z,13.8
2023-04-30T07:09:34.169Z,10.9
2023-04-30T07:10:50.425Z,12.6
2023-04-30T07:12:06.649Z,13.3
2023-04-30T07:13:22.890Z,13
2023-04-30T07:14:39.140Z,14
2023-04-30T07:15:55.384Z,12.3
2023-04-30T07:17:11.628Z,13.1
2023-04-30T07:18:27.860Z,14.6
2023-04-30T07:19:44.097Z,12.2
2023-04-30T07:21:00.339Z,13.3
2023-04-30T07:22:16.575Z,11.7
2023-04-30T07:23:32.814Z,14.7
2023-04-30T07:24:48.075Z,16.9
2023-04-30T07:26:04.312Z,11.5
2023-04-30T07:27:20.543Z,12.6
2023-04-30T07:28:36.796Z,13.6
2023-04-30T07:29:53.030Z,13.5
2023-04-30T07:31:09.271Z,12.6
2023-04-30T07:32:25.515Z,13
2023-04-30T07:33:41.742Z,12
2023-04-30T07:34:57.993Z,10.5
2023-04-30T07:36:14.230Z,11.5
2023-04-30T07:37:30.480Z,12.1
2023-04-30T07:38:46.712Z,10.7
2023-04-30T07:40:02.943Z,14
2023-04-30T07:41:18.212Z,10.9
2023-04-30T07:42:34.445Z,11.6
2023-04-30T07:43:50.689Z,13.3
2023-04-30T07:45:06.000Z,10.3
2023-04-30T07:46:23.171Z,11.9
2023-04-30T07:47:39.397Z,11.1
2023-04-30T07:48:55.641Z,12.4
2023-04-30T07:50:11.889Z,15.1
2023-04-30T07:51:28.133Z,12.9
2023-04-30T07:52:44.364Z,9.1
2023-04-30T07:54:00.608Z,14.9
2023-04-30T07:55:16.838Z,8.3
2023-04-30T07:56:33.079Z,11.1
2023-04-30T07:57:48.346Z,10.9
2023-04-30T07:59:04.584Z,12.4
2023-04-30T08:00:20.816Z,11.7
2023-04-30T08:01:37.073Z,12.2
2023-04-30T08:02:53.314Z,15.4
2023-04-30T08:04:09.553Z,11.3
2023-04-30T08:05:25.781Z,11.5
2023-04-30T08:06:42.025Z,11.1
2023-04-30T08:07:58.264Z,10.5
2023-04-30T08:09:14.507Z,11.6
2023-04-30T08:10:30.738Z,13.1
2023-04-30T08:11:46.985Z,11.8
2023-04-30T08:13:03.225Z,13.4
2023-04-30T08:14:18.484Z,13.5
2023-04-30T08:15:34.715Z,17.6
2023-04-30T08:16:50.969Z,9.8
2023-04-30T08:18:07.195Z,8.5
2023-04-30T08:19:23.442Z,13.8
2023-04-30T08:20:39.683Z,9
2023-04-30T08:21:55.924Z,11.6
2023-04-30T08:23:12.175Z,11.7
2023-04-30T08:24:28.401Z,12.9
2023-04-30T08:25:44.644Z,13.9
2023-04-30T08:27:00.887Z,12.3
2023-04-30T08:28:17.119Z,15.7
2023-04-30T08:29:33.365Z,11.6
2023-04-30T08:30:48.626Z,11.1
2023-04-30T08:32:04.852Z,8.5
2023-04-30T08:33:21.098Z,9.4
2023-04-30T08:34:37.341Z,10.7
2023-04-30T08:35:53.571Z,11.4
2023-04-30T08:37:09.813Z,11.1
2023-04-30T08:38:26.060Z,12.5
2023-04-30T08:39:42.294Z,12.9
2023-04-30T08:40:58.533Z,11.7
2023-04-30T08:42:14.777Z,14
2023-04-30T08:43:31.014Z,10.6
2023-04-30T08:44:47.270Z,10.7
2023-04-30T08:46:03.501Z,14.6
2023-04-30T08:47:18.769Z,12.1
2023-04-30T08:48:35.002Z,12.6
2023-04-30T08:49:51.240Z,10.5
2023-04-30T08:51:07.485Z,9.6
2023-04-30T08:52:23.724Z,12.7
2023-04-30T08:53:39.969Z,9.9
2023-04-30T08:54:56.207Z,9.3
2023-04-30T08:56:12.438Z,8.4
2023-04-30T08:57:28.682Z,7.4
2023-04-30T08:58:44.932Z,10
2023-04-30T09:00:01.169Z,7.2
2023-04-30T09:01:17.405Z,12
2023-04-30T09:02:33.647Z,9
2023-04-30T09:03:48.910Z,15.3
2023-04-30T09:05:05.133Z,9.4
2023-04-30T09:06:21.383Z,9.3
2023-04-30T09:07:37.622Z,6.9
2023-04-30T09:08:53.850Z,8.6
2023-04-30T09:10:10.104Z,9.9
2023-04-30T09:11:26.346Z,10.9
2023-04-30T09:12:42.577Z,7.8
2023-04-30T09:13:58.817Z,12.2
2023-04-30T09:15:15.000Z,10.7
2023-04-30T09:16:31.000Z,9.1
2023-04-30T09:17:47.549Z,9.2
2023-04-30T09:19:03.788Z,9.2
2023-04-30T09:20:19.047Z,8.1
2023-04-30T09:21:35.277Z,7.3
2023-04-30T09:22:51.514Z,9.3
2023-04-30T09:24:07.753Z,7
2023-04-30T09:25:24.006Z,7.6
2023-04-30T09:26:40.233Z,8.6
2023-04-30T09:27:56.483Z,7.2
2023-04-30T09:29:12.727Z,10.7
2023-04-30T09:30:28.954Z,14.6
2023-04-30T09:31:45.201Z,11.3
2023-04-30T09:33:01.439Z,12.5
2023-04-30T09:34:17.680Z,9.7
2023-04-30T09:35:33.919Z,9.2
2023-04-30T09:36:49.167Z,10.4
2023-04-30T09:38:05.409Z,11.5
2023-04-30T09:39:21.662Z,6.9
2023-04-30T09:40:37.888Z,6.7
2023-04-30T09:41:54.129Z,6.3
2023-04-30T09:43:10.370Z,7.4
2023-04-30T09:44:26.616Z,5.6
2023-04-30T09:45:42.862Z,8
2023-04-30T09:46:59.092Z,7.2
2023-04-30T09:48:15.348Z,8.6
2023-04-30T09:49:31.572Z,9.6
2023-04-30T09:50:47.819Z,9
2023-04-30T09:52:04.063Z,6.7
2023-04-30T09:53:19.309Z,6.2
2023-04-30T09:54:35.551Z,8.8
2023-04-30T09:55:51.791Z,8.8
2023-04-30T09:57:08.037Z,8.4
2023-04-30T09:58:24.278Z,8.6
2023-04-30T09:59:40.505Z,10.9
2023-04-30T10:00:56.761Z,8.5
2023-04-30T10:02:12.998Z,9.8
2023-04-30T10:03:29.226Z,8.5
2023-04-30T10:04:45.469Z,9.1
2023-04-30T10:06:01.716Z,8.1
2023-04-30T10:07:17.944Z,9.7
2023-04-30T10:08:34.191Z,7
2023-04-30T10:09:49.000Z,10.6
2023-04-30T10:11:05.690Z,8.2
2023-04-30T10:12:21.922Z,8.3
2023-04-30T10:13:38.162Z,8.7
2023-04-30T10:14:54.419Z,8.9
2023-04-30T10:16:10.658Z,8.4
2023-04-30T10:17:26.885Z,5.7
2023-04-30T10:18:43.130Z,9.2
2023-04-30T10:19:59.370Z,8.6
2023-04-30T10:21:15.603Z,8.1
2023-04-30T10:22:31.840Z,5.4
2023-04-30T10:23:48.095Z,6.7
2023-04-30T10:25:04.321Z,6.1
2023-04-30T10:26:19.581Z,9.7
2023-04-30T10:27:35.834Z,6.1
2023-04-30T10:28:52.087Z,6.8
2023-04-30T10:30:08.303Z,9.5
2023-04-30T10:31:24.565Z,7.3
2023-04-30T10:32:40.782Z,6.8
2023-04-30T10:33:57.010Z,5.9
2023-04-30T10:35:13.261Z,8.1
2023-04-30T10:36:29.513Z,6.9
2023-04-30T10:37:45.735Z,5.8
2023-04-30T10:39:01.969Z,10.6
2023-04-30T10:40:18.214Z,7.4
2023-04-30T10:41:34.477Z,5.7
2023-04-30T10:42:49.699Z,7.4
2023-04-30T10:44:05.942Z,10.1
2023-04-30T10:45:22.182Z,10.7
2023-04-30T10:46:38.425Z,6.8
2023-04-30T10:47:54.662Z,5.6
2023-04-30T10:49:10.890Z,8.2
2023-04-30T10:50:27.147Z,8.9
2023-04-30T10:51:43.399Z,6.6
2023-04-30T10:52:59.620Z,9.3
2023-04-30T10:54:15.854Z,8.6
2023-04-30T10:55:32.104Z,8.4
2023-04-30T10:56:48.328Z,7.4
2023-04-30T10:58:04.566Z,7
2023-04-30T10:59:19.850Z,5.7
2023-04-30T11:01:52.321Z,9
2023-04-30T11:03:08.533Z,7.5
2023-04-30T11:04:24.786Z,5.8
2023-04-30T11:05:41.027Z,6.5
2023-04-30T11:06:56.306Z,8.7
2023-04-30T11:08:12.522Z,6.2
2023-04-30T11:09:28.766Z,7.5
2023-04-30T11:10:45.014Z,7.1
2023-04-30T11:12:01.254Z,7
2023-04-30T11:13:17.476Z,6.9
2023-04-30T11:14:33.718Z,8.3
2023-04-30T11:15:49.970Z,7.6
2023-04-30T11:17:06.200Z,7.9
2023-04-30T11:18:22.429Z,7.7
2023-04-30T11:19:38.671Z,7.5
2023-04-30T11:20:54.921Z,9.3
2023-04-30T11:22:11.162Z,9.8
2023-04-30T11:23:26.407Z,8.5
2023-04-30T11:24:42.652Z,7.3
2023-04-30T11:25:58.890Z,9.7
2023-04-30T11:27:15.133Z,10.3
2023-04-30T11:28:31.380Z,8.8
2023-04-30T11:29:47.613Z,8.3
2023-04-30T11:31:03.856Z,7.3
2023-04-30T11:32:20.089Z,9.1
2023-04-30T11:33:36.324Z,7.7
2023-04-30T11:34:52.561Z,8.2
2023-04-30T11:36:08.796Z,6.4
2023-04-30T11:37:25.059Z,7.4
2023-04-30T11:38:41.270Z,7.4
2023-04-30T11:39:56.541Z,6.8
2023-04-30T11:41:12.778Z,6.6
2023-04-30T11:42:29.008Z,7
2023-04-30T11:43:45.256Z,6.8
2023-04-30T11:45:01.506Z,7.4
2023-04-30T11:46:17.731Z,7.4
2023-04-30T11:47:33.958Z,8
2023-04-30T11:48:50.215Z,8.4
2023-04-30T11:50:06.435Z,7.6
2023-04-30T11:51:22.677Z,8.7
2023-04-30T11:52:38.918Z,7.5
2023-04-30T11:53:55.149Z,9.9
2023-04-30T11:55:11.397Z,7.7
2023-04-30T11:56:26.658Z,8.9
2023-04-30T11:57:42.887Z,7.6
2023-04-30T11:58:59.121Z,10.7
2023-04-30T12:00:15.357Z,10
2023-04-30T12:01:31.631Z,8.9
2023-04-30T12:02:47.852Z,11.2
2023-04-30T12:04:04.084Z,9
2023-04-30T12:05:20.327Z,9.4
2023-04-30T12:06:36.569Z,8.9
2023-04-30T12:07:52.794Z,8.2
2023-04-30T12:09:09.033Z,9.4
2023-04-30T12:10:25.272Z,12.9
2023-04-30T12:11:41.514Z,10.5
2023-04-30T12:12:56.766Z,6.9
2023-04-30T12:14:13.022Z,8.9
2023-04-30T12:15:29.259Z,7.3
2023-04-30T12:16:45.481Z,10.2
2023-04-30T12:18:01.719Z,8.1
2023-04-30T12:19:17.965Z,8.7
2023-04-30T12:20:34.216Z,7.4
2023-04-30T12:21:50.447Z,9.5
2023-04-30T12:23:06.677Z,9.3
2023-04-30T12:24:22.920Z,9.6
2023-04-30T12:25:39.156Z,10.7
2023-04-30T12:26:55.405Z,7.7
2023-04-30T12:28:11.645Z,7.7
2023-04-30T12:29:26.888Z,9.7
2023-04-30T12:30:43.000Z,8.2
2023-04-30T12:31:59.368Z,8.7
2023-04-30T12:33:15.605Z,9.6
2023-04-30T12:34:31.858Z,8.8
2023-04-30T12:35:48.099Z,7.7
2023-04-30T12:37:04.322Z,7.2
2023-04-30T12:38:20.560Z,8.3
2023-04-30T12:39:36.816Z,7.6
2023-04-30T12:40:53.053Z,7.1
2023-04-30T12:42:09.289Z,9.7
2023-04-30T12:43:25.538Z,10.9
2023-04-30T12:44:41.764Z,8.4
2023-04-30T12:45:57.013Z,7.3
2023-04-30T12:47:13.289Z,8.6
2023-04-30T12:48:29.517Z,10.7
2023-04-30T12:49:45.743Z,6.9
2023-04-30T12:51:01.973Z,8.7
2023-04-30T12:52:18.233Z,9.8
2023-04-30T12:53:34.477Z,9.6
2023-04-30T12:54:50.697Z,9.5
2023-04-30T12:56:06.934Z,6.7
2023-04-30T12:57:23.166Z,9.4
2023-04-30T12:58:39.404Z,6.5
2023-04-30T12:59:55.661Z,6.9
2023-04-30T13:01:11.889Z,8
2023-04-30T13:02:27.139Z,6.3
2023-04-30T13:03:43.000Z,6.6
2023-04-30T13:04:59.616Z,6.7
2023-04-30T13:06:15.869Z,5.7
2023-04-30T13:07:32.104Z,6
2023-04-30T13:08:48.351Z,6.9
2023-04-30T13:10:04.586Z,9.1
2023-04-30T13:11:20.821Z,6.6
2023-04-30T13:12:37.058Z,7.7
2023-04-30T13:13:53.324Z,7.4
2023-04-30T13:15:09.536Z,7.3
2023-04-30T13:16:25.784Z,5.6
2023-04-30T13:17:42.022Z,6.7
2023-04-30T13:18:57.285Z,5.7
2023-04-30T13:20:13.000Z,8.9
2023-04-30T13:21:29.747Z,6.8
2023-04-30T13:22:46.000Z,7.3
2023-04-30T13:24:02.236Z,8.3
2023-04-30T13:25:18.474Z,6.7
2023-04-30T13:26:34.734Z,8
2023-04-30T13:27:50.950Z,11
2023-04-30T13:29:07.192Z,7.9
2023-04-30T13:30:23.436Z,5.9
2023-04-30T13:31:39.681Z,7.7
2023-04-30T13:32:55.908Z,5.9
2023-04-30T13:34:12.150Z,5.9
2023-04-30T13:35:27.419Z,6.1
2023-04-30T13:36:43.641Z,8.2
2023-04-30T13:37:59.894Z,5.6
2023-04-30T13:39:16.129Z,4.8
2023-04-30T13:40:32.374Z,6.8
2023-04-30T13:41:48.609Z,5.2
2023-04-30T13:43:04.000Z,6
2023-04-30T13:44:21.101Z,7.2
2023-04-30T13:45:37.319Z,6.5
2023-04-30T13:46:53.573Z,7.7
2023-04-30T13:48:09.815Z,7.1
2023-04-30T13:49:26.060Z,4.8
2023-04-30T13:50:42.287Z,4.2
2023-04-30T13:51:57.562Z,5.7
2023-04-30T13:53:13.778Z,6.7
2023-04-30T13:54:30.026Z,8.3
2023-04-30T13:55:46.271Z,5.7
2023-04-30T13:57:02.510Z,7.3
2023-04-30T13:58:18.759Z,8.1
2023-04-30T13:59:35.003Z,7
2023-04-30T14:00:51.233Z,6.9
2023-04-30T14:02:07.479Z,5.2
2023-04-30T14:03:23.712Z,7.6
2023-04-30T14:04:39.956Z,9.2
2023-04-30T14:05:56.177Z,5.6
2023-04-30T14:07:12.000Z,5.1
2023-04-30T14:08:28.657Z,5
2023-04-30T14:09:43.923Z,7.1
2023-04-30T14:11:00.154Z,9.1
2023-04-30T14:12:16.399Z,7.8
2023-04-30T14:13:32.664Z,7.5
2023-04-30T14:14:48.882Z,8.4
2023-04-30T14:16:05.143Z,7.5
2023-04-30T14:17:21.365Z,8.1
2023-04-30T14:18:37.605Z,9.2
2023-04-30T14:19:53.843Z,7
2023-04-30T14:21:10.094Z,8.9
2023-04-30T14:22:26.323Z,7.2
2023-04-30T14:23:42.559Z,7.9
2023-04-30T14:24:58.816Z,4.8
2023-04-30T14:26:14.063Z,9.8
2023-04-30T14:27:30.295Z,6.2
2023-04-30T14:28:46.564Z,7.3
2023-04-30T14:30:02.810Z,8.8
2023-04-30T14:31:19.021Z,6.4
2023-04-30T14:32:35.270Z,5.8
2023-04-30T14:33:51.510Z,8.2
2023-04-30T14:35:07.742Z,4.4
2023-04-30T14:36:23.978Z,7.8
2023-04-30T14:37:40.250Z,4.7
2023-04-30T14:38:56.464Z,8.2
2023-04-30T14:40:12.722Z,7.6
2023-04-30T14:41:28.941Z,6.6
2023-04-30T14:42:44.195Z,6.1
2023-04-30T14:44:00.435Z,6.7
2023-04-30T14:45:16.675Z,6.2
2023-04-30T14:46:32.927Z,7.3
2023-04-30T14:47:49.157Z,5.4
2023-04-30T14:49:05.421Z,7.7
2023-04-30T14:50:21.643Z,7.7
2023-04-30T14:51:37.906Z,6.8
2023-04-30T14:52:54.133Z,7.9
2023-04-30T14:54:10.365Z,7.9
2023-04-30T14:55:26.603Z,6.5
2023-04-30T14:56:42.837Z,6.4
2023-04-30T14:57:59.078Z,9.9
2023-04-30T14:59:14.344Z,7.7
2023-04-30T15:00:30.587Z,6.3
2023-04-30T15:01:46.815Z,8.9
2023-04-30T15:03:03.059Z,7.6
2023-04-30T15:04:19.300Z,7.2
2023-04-30T15:05:35.554Z,8.6
2023-04-30T15:06:51.777Z,6.4
2023-04-30T15:08:08.013Z,7.1
2023-04-30T15:09:24.260Z,6.1
2023-04-30T15:10:40.502Z,5.6
2023-04-30T15:11:56.742Z,5.1
2023-04-30T15:13:12.974Z,6.3
2023-04-30T15:14:29.225Z,8.4
2023-04-30T15:15:44.461Z,8.3
2023-04-30T15:17:00.721Z,10.1
2023-04-30T15:18:16.974Z,4.7
2023-04-30T15:19:33.195Z,7.1
2023-04-30T15:20:49.423Z,9.7
2023-04-30T15:22:04.696Z,7.9
2023-04-30T15:23:20.918Z,6.8
2023-04-30T15:24:37.176Z,8.7
2023-04-30T15:25:53.412Z,11.2
2023-04-30T15:27:09.659Z,9.5
2023-04-30T15:28:25.876Z,6.3
2023-04-30T15:29:42.131Z,5.4
2023-04-30T15:30:58.354Z,6.8
2023-04-30T15:32:14.593Z,5.7
2023-04-30T15:33:30.848Z,7.3
2023-04-30T15:34:47.076Z,10
2023-04-30T15:36:03.319Z,6.1
2023-04-30T15:37:19.571Z,9.9
2023-04-30T15:38:34.808Z,9.3
2023-04-30T15:39:51.061Z,8.1
2023-04-30T15:41:07.298Z,6.8
2023-04-30T15:42:23.544Z,7.8
2023-04-30T15:43:39.777Z,5.9
2023-04-30T15:44:56.006Z,7.2
2023-04-30T15:46:12.277Z,6.4
2023-04-30T15:47:28.492Z,8.1
2023-04-30T15:48:44.731Z,5.7
2023-04-30T15:50:00.969Z,6.3
2023-04-30T15:51:17.203Z,7.8
2023-04-30T15:52:33.437Z,8.6
2023-04-30T15:53:49.679Z,9
2023-04-30T15:55:04.944Z,7.5
2023-04-30T15:56:21.211Z,9.7
2023-04-30T15:57:37.415Z,7.8
2023-04-30T15:58:53.651Z,8.7
2023-04-30T16:00:09.901Z,6.4
2023-04-30T16:01:26.143Z,8
2023-04-30T16:02:42.387Z,8.3
2023-04-30T16:03:58.645Z,8.9
2023-04-30T16:05:14.877Z,4.8
2023-04-30T16:06:31.118Z,10.3
2023-04-30T16:07:47.332Z,5.7
2023-04-30T16:09:03.578Z,7.5
2023-04-30T16:10:19.000Z,7.1
2023-04-30T16:11:36.077Z,7.3
2023-04-30T16:12:51.331Z,7.2
2023-04-30T16:14:07.564Z,7.3
2023-04-30T16:15:23.783Z,7.6
2023-04-30T16:16:40.025Z,9.3
2023-04-30T16:17:56.269Z,6.6
2023-04-30T16:19:12.493Z,6.7
2023-04-30T16:20:28.745Z,6
2023-04-30T16:21:44.978Z,7.2
2023-04-30T16:23:01.244Z,7.1
2023-04-30T16:24:17.470Z,6.5
2023-04-30T16:25:33.704Z,7.4
2023-04-30T16:26:49.937Z,8.5
2023-04-30T16:28:06.174Z,6.8
2023-04-30T16:29:21.462Z,8.5
2023-04-30T16:30:37.671Z,6.5
2023-04-30T16:31:53.935Z,5.6
2023-04-30T16:33:10.173Z,8.6
2023-04-30T16:34:26.382Z,6.5
2023-04-30T16:35:42.631Z,8
2023-04-30T16:36:58.864Z,6.1
2023-04-30T16:38:15.100Z,7.9
2023-04-30T16:39:31.347Z,8.3
2023-04-30T16:40:47.576Z,6.5
2023-04-30T16:42:03.827Z,7.5
2023-04-30T16:43:20.085Z,6.1
2023-04-30T16:44:36.332Z,9.2
2023-04-30T16:45:51.550Z,11.1
2023-04-30T16:47:07.795Z,7.5
2023-04-30T16:48:24.033Z,6.2
2023-04-30T16:49:40.274Z,8.9
2023-04-30T16:50:56.519Z,6.9
2023-04-30T16:52:12.763Z,8.3
2023-04-30T16:53:28.991Z,6.8
2023-04-30T16:54:45.237Z,8.3
2023-04-30T16:56:01.000Z,7.7
2023-04-30T16:57:17.707Z,7.7
2023-04-30T16:58:33.960Z,8
2023-04-30T16:59:50.217Z,6.7
2023-04-30T17:01:06.425Z,5.4
2023-04-30T17:02:21.684Z,6.5
2023-04-30T17:03:37.950Z,7.6
2023-04-30T17:04:54.157Z,5.9
2023-04-30T17:06:10.400Z,5.6
2023-04-30T17:07:26.640Z,8.3
2023-04-30T17:08:42.885Z,6.1
2023-04-30T17:09:59.121Z,9.3
2023-04-30T17:11:15.370Z,9.5
2023-04-30T17:12:31.626Z,6.5
2023-04-30T17:13:47.837Z,6
2023-04-30T17:15:04.078Z,7.5
2023-04-30T17:16:20.320Z,6.3
2023-04-30T17:17:36.571Z,8.1
2023-04-30T17:18:51.823Z,6.8
2023-04-30T17:20:08.053Z,6.4
2023-04-30T17:21:24.327Z,7.7